Wetterdaten: Woche 06.07.15 - 12.07.15 (KW28)
Datum Zeit Temp. Aussen +5cm Feuchte Auss BlattFeu 1 Luftdruck Regen Sonnenschein Regendauer Solar Windben
06.07.2015 00:00 18,3 C 16,8 C 87 % 0 lf 1017,8 hPa 0,0 l/m 0,00 h 0,00 h 0 W/m 7,3 km/h (2 Bft)
06.07.2015 01:00 17,6 C 15,9 C 88 % 0 lf 1018,3 hPa 0,0 l/m 0,00 h 0,00 h 0 W/m 6,2 km/h (2 Bft)
06.07.2015 02:00 17,1 C 15,7 C 90 % 0 lf 1019,0 hPa 0,0 l/m 0,00 h 0,00 h 0 W/m 7,4 km/h (2 Bft)
06.07.2015 03:00 16,3 C 15,0 C 88 % 0 lf 1019,5 hPa 0,0 l/m 0,00 h 0,00 h 0 W/m 10,4 km/h (2 Bft)
06.07.2015 04:00 15,3 C 14,2 C 88 % 0 lf 1020,2 hPa 0,0 l/m 0,00 h 0,00 h 0 W/m 11,4 km/h (2 Bft)
06.07.2015 05:00 14,7 C 13,8 C 89 % 0 lf 1020,4 hPa 0,0 l/m 0,02 h 0,00 h 12 W/m 11,5 km/h (2 Bft)
06.07.2015 06:00 14,5 C 13,9 C 90 % 0 lf 1020,7 hPa 0,0 l/m 0,90 h 0,00 h 86 W/m 17,7 km/h (3 Bft)
06.07.2015 07:00 15,2 C 14,2 C 87 % 0 lf 1020,9 hPa 0,0 l/m 1,00 h 0,00 h 244 W/m 18,5 km/h (3 Bft)
06.07.2015 08:00 16,5 C 15,4 C 84 % 0 lf 1021,3 hPa 0,0 l/m 1,00 h 0,00 h 406 W/m 16,4 km/h (3 Bft)
06.07.2015 09:00 19,0 C 17,5 C 77 % 0 lf 1021,6 hPa 0,0 l/m 1,00 h 0,00 h 545 W/m 12,6 km/h (3 Bft)
06.07.2015 10:00 20,7 C 23,9 C 71 % 0 lf 1021,6 hPa 0,0 l/m 1,00 h 0,00 h 693 W/m 14,8 km/h (3 Bft)
06.07.2015 11:00 22,2 C 25,8 C 60 % 0 lf 1021,5 hPa 0,0 l/m 1,00 h 0,00 h 801 W/m 18,9 km/h (3 Bft)
06.07.2015 12:00 23,7 C 27,4 C 53 % 0 lf 1021,1 hPa 0,0 l/m 0,92 h 0,00 h 856 W/m 23,5 km/h (4 Bft)
06.07.2015 13:00 25,1 C 24,9 C 51 % 0 lf 1020,9 hPa 0,0 l/m 0,93 h 0,00 h 864 W/m 23,1 km/h (4 Bft)
06.07.2015 14:00 26,7 C 25,5 C 48 % 0 lf 1020,7 hPa 0,0 l/m 0,97 h 0,00 h 882 W/m 19,6 km/h (3 Bft)
06.07.2015 15:00 27,1 C 25,5 C 47 % 0 lf 1020,2 hPa 0,0 l/m 0,83 h 0,00 h 738 W/m 15,7 km/h (3 Bft)
06.07.2015 16:00 27,4 C 27,4 C 46 % 0 lf 1019,8 hPa 0,0 l/m 0,87 h 0,00 h 670 W/m 16,0 km/h (3 Bft)
06.07.2015 17:00 27,5 C 24,4 C 44 % 0 lf 1019,3 hPa 0,0 l/m 1,00 h 0,00 h 594 W/m 14,8 km/h (3 Bft)
06.07.2015 18:00 26,0 C 23,0 C 47 % 0 lf 1018,7 hPa 0,0 l/m 0,97 h 0,00 h 428 W/m 13,6 km/h (3 Bft)
06.07.2015 19:00 25,0 C 22,3 C 49 % 0 lf 1018,2 hPa 0,0 l/m 1,00 h 0,00 h 266 W/m 9,0 km/h (2 Bft)
06.07.2015 20:00 24,5 C 21,3 C 50 % 0 lf 1017,8 hPa 0,0 l/m 0,70 h 0,00 h 99 W/m 6,1 km/h (2 Bft)
06.07.2015 21:00 23,4 C 18,9 C 56 % 0 lf 1017,6 hPa 0,0 l/m 0,00 h 0,00 h 17 W/m 2,1 km/h (1 Bft)
06.07.2015 22:00 21,4 C 17,1 C 63 % 0 lf 1017,5 hPa 0,0 l/m 0,00 h 0,00 h 0 W/m 1,7 km/h (1 Bft)
06.07.2015 23:00 19,7 C 16,1 C 69 % 0 lf 1017,1 hPa 0,0 l/m 0,00 h 0,00 h 0 W/m 1,4 km/h (1 Bft)
07.07.2015 00:00 18,2 C 15,3 C 77 % 0 lf 1016,8 hPa 0,0 l/m 0,00 h 0,00 h 0 W/m 0,8 km/h (0 Bft)
07.07.2015 01:00 17,2 C 14,8 C 82 % 0 lf 1016,1 hPa 0,0 l/m 0,00 h 0,00 h 0 W/m 2,7 km/h (1 Bft)
07.07.2015 02:00 16,4 C 14,0 C 83 % 0 lf 1015,5 hPa 0,0 l/m 0,00 h 0,00 h 0 W/m 3,2 km/h (1 Bft)
07.07.2015 03:00 15,9 C 13,7 C 84 % 0 lf 1015,0 hPa 0,0 l/m 0,00 h 0,00 h 0 W/m 2,5 km/h (1 Bft)
07.07.2015 04:00 15,4 C 13,3 C 85 % 0 lf 1014,5 hPa 0,0 l/m 0,00 h 0,00 h 0 W/m 3,6 km/h (1 Bft)
07.07.2015 05:00 15,1 C 13,7 C 87 % 0 lf 1013,8 hPa 0,0 l/m 0,10 h 0,00 h 13 W/m 6,6 km/h (2 Bft)
07.07.2015 06:00 15,4 C 14,4 C 88 % 0 lf 1013,2 hPa 0,0 l/m 0,95 h 0,00 h 82 W/m 9,4 km/h (2 Bft)
07.07.2015 07:00 16,6 C 15,9 C 87 % 0 lf 1012,6 hPa 0,0 l/m 1,00 h 0,00 h 238 W/m 12,9 km/h (3 Bft)
07.07.2015 08:00 18,9 C 18,5 C 80 % 0 lf 1012,1 hPa 0,0 l/m 1,00 h 0,00 h 333 W/m 13,7 km/h (3 Bft)
07.07.2015 09:00 22,7 C 21,7 C 70 % 0 lf 1011,2 hPa 0,0 l/m 1,00 h 0,00 h 553 W/m 15,7 km/h (3 Bft)
07.07.2015 10:00 26,6 C 29,5 C 59 % 0 lf 1010,3 hPa 0,0 l/m 1,00 h 0,00 h 686 W/m 15,9 km/h (3 Bft)
07.07.2015 11:00 29,1 C 31,5 C 51 % 0 lf 1009,5 hPa 0,0 l/m 1,00 h 0,00 h 711 W/m 16,3 km/h (3 Bft)
07.07.2015 12:00 31,3 C 33,0 C 47 % 0 lf 1008,7 hPa 0,0 l/m 0,83 h 0,00 h 680 W/m 15,0 km/h (3 Bft)
07.07.2015 13:00 30,7 C 28,5 C 49 % 0 lf 1008,1 hPa 0,0 l/m 0,13 h 0,00 h 293 W/m 16,3 km/h (3 Bft)
07.07.2015 14:00 29,9 C 29,0 C 51 % 0 lf 1007,6 hPa 0,0 l/m 0,40 h 0,00 h 425 W/m 21,7 km/h (4 Bft)
07.07.2015 15:00 30,8 C 28,5 C 48 % 0 lf 1007,0 hPa 0,0 l/m 0,37 h 0,00 h 399 W/m 17,8 km/h (3 Bft)
07.07.2015 16:00 29,0 C 26,6 C 51 % 0 lf 1006,9 hPa 0,0 l/m 0,07 h 0,00 h 215 W/m 20,9 km/h (4 Bft)
07.07.2015 17:00 27,9 C 25,9 C 52 % 0 lf 1006,9 hPa 0,0 l/m 0,20 h 0,00 h 244 W/m 23,3 km/h (4 Bft)
07.07.2015 18:00 27,0 C 25,1 C 55 % 0 lf 1006,5 hPa 0,0 l/m 0,38 h 0,00 h 218 W/m 23,8 km/h (4 Bft)
07.07.2015 19:00 25,4 C 23,3 C 61 % 0 lf 1006,6 hPa 0,0 l/m 0,47 h 0,00 h 139 W/m 24,3 km/h (4 Bft)
07.07.2015 20:00 23,9 C 22,0 C 63 % 0 lf 1006,8 hPa 0,0 l/m 0,70 h 0,00 h 104 W/m 25,6 km/h (4 Bft)
07.07.2015 21:00 22,5 C 20,3 C 66 % 0 lf 1006,7 hPa 0,0 l/m 0,00 h 0,00 h 13 W/m 18,7 km/h (3 Bft)
07.07.2015 22:00 21,2 C 19,4 C 72 % 0 lf 1006,7 hPa 0,0 l/m 0,00 h 0,00 h 0 W/m 16,7 km/h (3 Bft)
07.07.2015 23:00 20,8 C 18,9 C 72 % 2 lf 1006,9 hPa 0,0 l/m 0,00 h 0,17 h 0 W/m 27,1 km/h (4 Bft)
08.07.2015 00:00 17,8 C 14,6 C 80 % 14 lf 1007,9 hPa 1,2 l/m 0,00 h 0,83 h 0 W/m 26,8 km/h (4 Bft)
08.07.2015 01:00 15,1 C 13,4 C 92 % 15 lf 1007,8 hPa 0,2 l/m 0,00 h 0,10 h 0 W/m 21,5 km/h (4 Bft)
08.07.2015 02:00 14,7 C 13,0 C 94 % 15 lf 1007,8 hPa 0,0 l/m 0,00 h 0,00 h 0 W/m 25,0 km/h (4 Bft)
08.07.2015 03:00 14,2 C 12,2 C 91 % 13 lf 1008,2 hPa 0,0 l/m 0,00 h 0,00 h 0 W/m 24,9 km/h (4 Bft)
08.07.2015 04:00 14,0 C 12,0 C 89 % 0 lf 1008,6 hPa 0,0 l/m 0,00 h 0,00 h 0 W/m 22,6 km/h (4 Bft)
08.07.2015 05:00 13,6 C 11,7 C 88 % 0 lf 1009,0 hPa 0,0 l/m 0,00 h 0,00 h 10 W/m 22,0 km/h (4 Bft)
08.07.2015 06:00 13,7 C 12,6 C 89 % 0 lf 1009,0 hPa 0,0 l/m 0,03 h 0,00 h 48 W/m 25,4 km/h (4 Bft)
08.07.2015 07:00 14,2 C 13,3 C 87 % 0 lf 1009,2 hPa 0,0 l/m 0,47 h 0,00 h 150 W/m 26,3 km/h (4 Bft)
08.07.2015 08:00 15,0 C 14,6 C 84 % 0 lf 1009,5 hPa 0,0 l/m 0,37 h 0,00 h 193 W/m 25,2 km/h (4 Bft)
08.07.2015 09:00 16,1 C 15,9 C 80 % 0 lf 1009,6 hPa 0,0 l/m 0,60 h 0,00 h 287 W/m 29,2 km/h (5 Bft)
08.07.2015 10:00 17,4 C 18,0 C 76 % 0 lf 1009,6 hPa 0,0 l/m 0,83 h 0,00 h 452 W/m 35,4 km/h (5 Bft)
08.07.2015 11:00 18,2 C 18,2 C 71 % 0 lf 1009,6 hPa 0,0 l/m 0,43 h 0,10 h 380 W/m 34,9 km/h (5 Bft)
08.07.2015 12:00 18,6 C 18,7 C 68 % 0 lf 1009,8 hPa 0,0 l/m 0,47 h 0,07 h 422 W/m 39,4 km/h (6 Bft)
08.07.2015 13:00 17,9 C 16,6 C 75 % 7 lf 1010,2 hPa 0,2 l/m 0,13 h 0,43 h 239 W/m 39,1 km/h (6 Bft)
08.07.2015 14:00 17,0 C 16,0 C 87 % 7 lf 1010,6 hPa 0,2 l/m 0,73 h 0,30 h 492 W/m 35,9 km/h (5 Bft)
08.07.2015 15:00 18,1 C 17,3 C 80 % 5 lf 1010,6 hPa 0,0 l/m 0,23 h 0,43 h 311 W/m 32,8 km/h (5 Bft)
08.07.2015 16:00 17,9 C 15,8 C 86 % 15 lf 1010,8 hPa 1,8 l/m 0,27 h 0,50 h 270 W/m 22,4 km/h (4 Bft)
08.07.2015 17:00 18,2 C 15,9 C 87 % 2 lf 1010,6 hPa 0,0 l/m 0,80 h 0,03 h 497 W/m 30,0 km/h (5 Bft)
08.07.2015 18:00 18,9 C 15,7 C 80 % 1 lf 1010,7 hPa 0,2 l/m 0,48 h 0,17 h 230 W/m 27,3 km/h (4 Bft)
08.07.2015 19:00 17,3 C 14,2 C 86 % 15 lf 1011,3 hPa 4,0 l/m 0,00 h 0,63 h 35 W/m 16,6 km/h (3 Bft)
08.07.2015 20:00 15,7 C 14,1 C 92 % 15 lf 1011,6 hPa 4,2 l/m 0,03 h 0,53 h 29 W/m 9,8 km/h (2 Bft)
08.07.2015 21:00 15,5 C 13,9 C 94 % 15 lf 1011,8 hPa 0,4 l/m 0,00 h 0,53 h 6 W/m 9,1 km/h (2 Bft)
08.07.2015 22:00 15,0 C 13,4 C 95 % 15 lf 1012,4 hPa 0,0 l/m 0,00 h 0,03 h 0 W/m 18,2 km/h (3 Bft)
08.07.2015 23:00 15,1 C 13,3 C 93 % 15 lf 1012,5 hPa 0,0 l/m 0,00 h 0,00 h 0 W/m 17,6 km/h (3 Bft)
09.07.2015 00:00 15,4 C 13,3 C 92 % 14 lf 1012,7 hPa 0,2 l/m 0,00 h 0,32 h 0 W/m 14,9 km/h (3 Bft)
09.07.2015 01:00 15,3 C 13,3 C 93 % 13 lf 1012,7 hPa 0,0 l/m 0,00 h 0,00 h 0 W/m 20,5 km/h (4 Bft)
09.07.2015 02:00 14,8 C 12,6 C 92 % 15 lf 1013,6 hPa 0,8 l/m 0,00 h 0,30 h 0 W/m 24,7 km/h (4 Bft)
09.07.2015 03:00 13,3 C 11,7 C 93 % 15 lf 1014,9 hPa 0,0 l/m 0,00 h 0,00 h 0 W/m 19,9 km/h (4 Bft)
09.07.2015 04:00 12,8 C 11,2 C 94 % 15 lf 1015,7 hPa 0,0 l/m 0,00 h 0,00 h 0 W/m 18,7 km/h (3 Bft)
09.07.2015 05:00 12,1 C 10,6 C 94 % 15 lf 1016,4 hPa 0,0 l/m 0,23 h 0,00 h 14 W/m 12,4 km/h (3 Bft)
09.07.2015 06:00 11,9 C 10,9 C 95 % 14 lf 1017,1 hPa 0,0 l/m 0,10 h 0,00 h 44 W/m 11,0 km/h (2 Bft)
09.07.2015 07:00 12,3 C 11,2 C 95 % 1 lf 1017,4 hPa 0,0 l/m 0,00 h 0,00 h 95 W/m 11,7 km/h (2 Bft)
09.07.2015 08:00 13,2 C 12,8 C 90 % 0 lf 1018,0 hPa 0,0 l/m 0,37 h 0,00 h 204 W/m 12,6 km/h (3 Bft)
09.07.2015 09:00 14,4 C 14,0 C 84 % 0 lf 1018,7 hPa 0,0 l/m 0,20 h 0,00 h 208 W/m 17,6 km/h (3 Bft)
09.07.2015 10:00 15,4 C 14,7 C 78 % 3 lf 1019,1 hPa 0,0 l/m 0,23 h 0,17 h 270 W/m 17,8 km/h (3 Bft)
09.07.2015 11:00 15,0 C 13,3 C 82 % 15 lf 1019,8 hPa 0,2 l/m 0,20 h 0,77 h 288 W/m 16,1 km/h (3 Bft)
09.07.2015 12:00 17,6 C 20,6 C 75 % 0 lf 1020,1 hPa 0,0 l/m 0,75 h 0,00 h 766 W/m 18,9 km/h (3 Bft)
09.07.2015 13:00 19,1 C 18,8 C 63 % 0 lf 1020,3 hPa 0,0 l/m 0,53 h 0,00 h 667 W/m 24,8 km/h (4 Bft)
09.07.2015 14:00 19,6 C 19,2 C 61 % 0 lf 1020,6 hPa 0,0 l/m 0,87 h 0,00 h 877 W/m 24,6 km/h (4 Bft)
09.07.2015 15:00 20,2 C 19,4 C 55 % 0 lf 1020,9 hPa 0,0 l/m 0,70 h 0,00 h 667 W/m 26,2 km/h (4 Bft)
09.07.2015 16:00 20,6 C 19,6 C 51 % 0 lf 1021,2 hPa 0,0 l/m 0,67 h 0,00 h 545 W/m 25,4 km/h (4 Bft)
09.07.2015 17:00 19,5 C 18,1 C 54 % 0 lf 1021,8 hPa 0,0 l/m 0,80 h 0,00 h 559 W/m 27,1 km/h (4 Bft)
09.07.2015 18:00 18,6 C 16,9 C 57 % 0 lf 1022,1 hPa 0,0 l/m 0,88 h 0,00 h 405 W/m 24,5 km/h (4 Bft)
09.07.2015 19:00 17,6 C 15,9 C 59 % 0 lf 1022,6 hPa 0,0 l/m 0,87 h 0,00 h 242 W/m 21,5 km/h (4 Bft)
09.07.2015 20:00 16,8 C 14,9 C 61 % 0 lf 1023,1 hPa 0,0 l/m 0,63 h 0,00 h 90 W/m 14,8 km/h (3 Bft)
09.07.2015 21:00 15,7 C 13,4 C 63 % 0 lf 1023,5 hPa 0,0 l/m 0,10 h 0,00 h 19 W/m 12,3 km/h (3 Bft)
09.07.2015 22:00 14,2 C 10,8 C 68 % 0 lf 1023,9 hPa 0,0 l/m 0,00 h 0,00 h 4 W/m 4,5 km/h (1 Bft)
09.07.2015 23:00 12,4 C 9,6 C 73 % 0 lf 1024,3 hPa 0,0 l/m 0,00 h 0,00 h 0 W/m 3,6 km/h (1 Bft)
10.07.2015 00:00 11,2 C 8,8 C 77 % 0 lf 1024,5 hPa 0,0 l/m 0,00 h 0,00 h 0 W/m 2,4 km/h (1 Bft)
10.07.2015 01:00 10,2 C 8,0 C 83 % 1 lf 1024,4 hPa 0,0 l/m 0,00 h 0,00 h 0 W/m 1,9 km/h (1 Bft)
10.07.2015 02:00 9,2 C 7,3 C 85 % 3 lf 1024,4 hPa 0,0 l/m 0,00 h 0,00 h 0 W/m 2,1 km/h (1 Bft)
10.07.2015 03:00 8,4 C 6,8 C 87 % 4 lf 1024,3 hPa 0,0 l/m 0,00 h 0,00 h 0 W/m 2,7 km/h (1 Bft)
10.07.2015 04:00 7,9 C 6,7 C 89 % 6 lf 1024,3 hPa 0,0 l/m 0,00 h 0,00 h 0 W/m 0,9 km/h (0 Bft)
10.07.2015 05:00 7,5 C 6,5 C 90 % 12 lf 1024,5 hPa 0,0 l/m 0,10 h 0,00 h 11 W/m 2,1 km/h (1 Bft)
10.07.2015 06:00 7,4 C 6,9 C 92 % 15 lf 1024,5 hPa 0,0 l/m 0,53 h 0,00 h 63 W/m 1,7 km/h (1 Bft)
10.07.2015 07:00 8,5 C 8,7 C 94 % 7 lf 1024,4 hPa 0,0 l/m 1,00 h 0,00 h 231 W/m 2,6 km/h (1 Bft)
10.07.2015 08:00 10,5 C 11,2 C 94 % 0 lf 1024,4 hPa 0,0 l/m 1,00 h 0,00 h 398 W/m 6,4 km/h (2 Bft)
10.07.2015 09:00 15,4 C 13,9 C 72 % 0 lf 1024,4 hPa 0,0 l/m 1,00 h 0,00 h 554 W/m 8,9 km/h (2 Bft)
10.07.2015 10:00 18,3 C 22,5 C 59 % 0 lf 1024,3 hPa 0,0 l/m 1,00 h 0,00 h 693 W/m 9,6 km/h (2 Bft)
10.07.2015 11:00 20,2 C 23,4 C 55 % 0 lf 1023,9 hPa 0,0 l/m 0,93 h 0,00 h 753 W/m 9,9 km/h (2 Bft)
10.07.2015 12:00 21,5 C 24,8 C 52 % 0 lf 1023,5 hPa 0,0 l/m 0,98 h 0,00 h 826 W/m 11,0 km/h (2 Bft)
10.07.2015 13:00 22,7 C 21,5 C 50 % 0 lf 1023,3 hPa 0,0 l/m 1,00 h 0,00 h 902 W/m 11,6 km/h (2 Bft)
10.07.2015 14:00 23,5 C 21,3 C 48 % 0 lf 1022,7 hPa 0,0 l/m 1,00 h 0,00 h 876 W/m 12,6 km/h (3 Bft)
10.07.2015 15:00 23,9 C 21,7 C 45 % 0 lf 1022,1 hPa 0,0 l/m 0,98 h 0,00 h 814 W/m 12,8 km/h (3 Bft)
10.07.2015 16:00 24,1 C 23,0 C 43 % 0 lf 1021,3 hPa 0,0 l/m 1,00 h 0,00 h 716 W/m 9,6 km/h (2 Bft)
10.07.2015 17:00 24,5 C 21,4 C 43 % 0 lf 1020,5 hPa 0,0 l/m 1,00 h 0,00 h 573 W/m 9,6 km/h (2 Bft)
10.07.2015 18:00 23,3 C 20,5 C 44 % 0 lf 1019,6 hPa 0,0 l/m 0,93 h 0,00 h 417 W/m 12,1 km/h (2 Bft)
10.07.2015 19:00 22,6 C 20,2 C 46 % 0 lf 1019,3 hPa 0,0 l/m 1,00 h 0,00 h 259 W/m 11,5 km/h (2 Bft)
10.07.2015 20:00 22,2 C 19,5 C 50 % 0 lf 1018,9 hPa 0,0 l/m 0,67 h 0,00 h 93 W/m 9,9 km/h (2 Bft)
10.07.2015 21:00 21,2 C 17,0 C 55 % 0 lf 1018,6 hPa 0,0 l/m 0,00 h 0,00 h 14 W/m 5,9 km/h (2 Bft)
10.07.2015 22:00 19,6 C 16,3 C 58 % 0 lf 1018,3 hPa 0,0 l/m 0,00 h 0,00 h 0 W/m 9,2 km/h (2 Bft)
10.07.2015 23:00 18,7 C 16,0 C 61 % 0 lf 1018,2 hPa 0,0 l/m 0,00 h 0,00 h 0 W/m 10,3 km/h (2 Bft)
11.07.2015 00:00 17,7 C 15,5 C 65 % 0 lf 1017,5 hPa 0,0 l/m 0,00 h 0,00 h 0 W/m 13,1 km/h (3 Bft)
11.07.2015 01:00 16,8 C 13,8 C 68 % 0 lf 1017,0 hPa 0,0 l/m 0,00 h 0,00 h 0 W/m 5,2 km/h (1 Bft)
11.07.2015 02:00 15,3 C 12,2 C 74 % 0 lf 1016,7 hPa 0,0 l/m 0,00 h 0,00 h 0 W/m 2,0 km/h (1 Bft)
11.07.2015 03:00 14,2 C 12,4 C 79 % 0 lf 1016,4 hPa 0,0 l/m 0,00 h 0,00 h 0 W/m 4,0 km/h (1 Bft)
11.07.2015 04:00 14,1 C 12,4 C 80 % 0 lf 1015,9 hPa 0,0 l/m 0,00 h 0,00 h 0 W/m 4,9 km/h (1 Bft)
11.07.2015 05:00 14,3 C 13,2 C 78 % 0 lf 1015,2 hPa 0,0 l/m 0,00 h 0,00 h 8 W/m 8,1 km/h (2 Bft)
11.07.2015 06:00 14,9 C 13,9 C 76 % 0 lf 1014,9 hPa 0,0 l/m 0,00 h 0,00 h 40 W/m 10,6 km/h (2 Bft)
11.07.2015 07:00 15,5 C 14,3 C 73 % 0 lf 1014,4 hPa 0,0 l/m 0,80 h 0,00 h 211 W/m 15,4 km/h (3 Bft)
11.07.2015 08:00 17,6 C 16,9 C 67 % 0 lf 1014,4 hPa 0,0 l/m 0,77 h 0,00 h 307 W/m 16,9 km/h (3 Bft)
11.07.2015 09:00 19,5 C 18,4 C 62 % 0 lf 1014,3 hPa 0,0 l/m 0,77 h 0,00 h 336 W/m 15,9 km/h (3 Bft)
11.07.2015 10:00 21,5 C 24,2 C 57 % 0 lf 1014,3 hPa 0,0 l/m 0,90 h 0,00 h 609 W/m 15,5 km/h (3 Bft)
11.07.2015 11:00 24,7 C 28,1 C 50 % 0 lf 1014,1 hPa 0,0 l/m 0,97 h 0,00 h 776 W/m 13,0 km/h (3 Bft)
11.07.2015 12:00 27,5 C 30,2 C 44 % 0 lf 1014,2 hPa 0,0 l/m 0,83 h 0,00 h 791 W/m 8,5 km/h (2 Bft)
11.07.2015 13:00 29,3 C 27,4 C 39 % 0 lf 1014,1 hPa 0,0 l/m 1,00 h 0,00 h 909 W/m 10,8 km/h (2 Bft)
11.07.2015 14:00 30,3 C 27,7 C 37 % 0 lf 1014,2 hPa 0,0 l/m 1,00 h 0,00 h 874 W/m 13,3 km/h (3 Bft)
11.07.2015 15:00 31,4 C 28,4 C 35 % 0 lf 1014,3 hPa 0,0 l/m 1,00 h 0,00 h 783 W/m 14,4 km/h (3 Bft)
11.07.2015 16:00 31,6 C 29,4 C 36 % 0 lf 1014,4 hPa 0,0 l/m 1,00 h 0,00 h 654 W/m 15,4 km/h (3 Bft)
11.07.2015 17:00 31,2 C 27,7 C 36 % 0 lf 1014,3 hPa 0,0 l/m 1,00 h 0,00 h 521 W/m 15,1 km/h (3 Bft)
11.07.2015 18:00 29,8 C 26,2 C 38 % 0 lf 1014,4 hPa 0,0 l/m 0,97 h 0,00 h 363 W/m 20,8 km/h (4 Bft)
11.07.2015 19:00 28,0 C 24,8 C 45 % 0 lf 1014,8 hPa 0,0 l/m 1,00 h 0,00 h 197 W/m 23,9 km/h (4 Bft)
11.07.2015 20:00 25,9 C 22,7 C 49 % 0 lf 1015,6 hPa 0,0 l/m 0,50 h 0,00 h 88 W/m 23,4 km/h (4 Bft)
11.07.2015 21:00 23,5 C 20,3 C 55 % 0 lf 1016,4 hPa 0,0 l/m 0,00 h 0,00 h 17 W/m 15,7 km/h (3 Bft)
11.07.2015 22:00 21,6 C 18,0 C 58 % 0 lf 1016,8 hPa 0,0 l/m 0,00 h 0,00 h 0 W/m 6,6 km/h (2 Bft)
11.07.2015 23:00 19,9 C 16,1 C 63 % 0 lf 1017,0 hPa 0,0 l/m 0,00 h 0,00 h 0 W/m 3,1 km/h (1 Bft)
12.07.2015 00:00 18,2 C 14,9 C 69 % 0 lf 1017,3 hPa 0,0 l/m 0,00 h 0,00 h 0 W/m 1,6 km/h (1 Bft)
12.07.2015 01:00 16,9 C 14,1 C 75 % 0 lf 1017,3 hPa 0,0 l/m 0,00 h 0,00 h 0 W/m 1,8 km/h (1 Bft)
12.07.2015 02:00 16,0 C 13,8 C 82 % 0 lf 1017,1 hPa 0,0 l/m 0,00 h 0,00 h 0 W/m 2,6 km/h (1 Bft)
12.07.2015 03:00 15,4 C 13,9 C 84 % 0 lf 1017,2 hPa 0,0 l/m 0,00 h 0,00 h 0 W/m 7,9 km/h (2 Bft)
12.07.2015 04:00 15,2 C 13,9 C 84 % 0 lf 1017,2 hPa 0,0 l/m 0,00 h 0,00 h 0 W/m 10,1 km/h (2 Bft)
12.07.2015 05:00 15,0 C 13,9 C 83 % 0 lf 1017,1 hPa 0,0 l/m 0,00 h 0,00 h 10 W/m 11,3 km/h (2 Bft)
12.07.2015 06:00 14,7 C 13,7 C 82 % 0 lf 1017,1 hPa 0,0 l/m 0,17 h 0,00 h 52 W/m 14,1 km/h (3 Bft)
12.07.2015 07:00 15,1 C 14,5 C 83 % 0 lf 1017,3 hPa 0,0 l/m 0,87 h 0,00 h 146 W/m 17,0 km/h (3 Bft)
12.07.2015 08:00 16,0 C 15,4 C 83 % 0 lf 1017,4 hPa 0,0 l/m 0,13 h 0,00 h 114 W/m 17,8 km/h (3 Bft)
12.07.2015 09:00 16,4 C 15,5 C 84 % 2 lf 1017,7 hPa 0,0 l/m 0,00 h 0,40 h 129 W/m 16,6 km/h (3 Bft)
12.07.2015 10:00 16,9 C 15,2 C 84 % 9 lf 1018,0 hPa 0,2 l/m 0,00 h 0,53 h 164 W/m 14,8 km/h (3 Bft)
12.07.2015 11:00 16,9 C 14,7 C 87 % 15 lf 1018,3 hPa 0,0 l/m 0,00 h 1,00 h 190 W/m 13,9 km/h (3 Bft)
12.07.2015 12:00 17,2 C 15,2 C 88 % 6 lf 1018,3 hPa 0,4 l/m 0,00 h 0,60 h 243 W/m 15,6 km/h (3 Bft)
12.07.2015 13:00 17,8 C 15,3 C 86 % 12 lf 1018,3 hPa 0,0 l/m 0,00 h 1,00 h 196 W/m 13,0 km/h (3 Bft)
12.07.2015 14:00 18,3 C 16,0 C 87 % 6 lf 1017,9 hPa 0,0 l/m 0,00 h 0,80 h 209 W/m 9,2 km/h (2 Bft)
12.07.2015 15:00 18,7 C 15,9 C 85 % 9 lf 1017,9 hPa 0,0 l/m 0,00 h 1,00 h 175 W/m 10,7 km/h (2 Bft)
12.07.2015 16:00 18,7 C 16,0 C 86 % 14 lf 1018,3 hPa 0,2 l/m 0,00 h 0,83 h 133 W/m 7,8 km/h (2 Bft)
12.07.2015 17:00 18,3 C 15,2 C 85 % 3 lf 1018,2 hPa 0,0 l/m 0,00 h 0,90 h 123 W/m 11,5 km/h (2 Bft)
12.07.2015 18:00 18,4 C 16,5 C 81 % 0 lf 1017,5 hPa 0,0 l/m 0,60 h 0,00 h 254 W/m 18,8 km/h (3 Bft)
12.07.2015 19:00 18,7 C 17,2 C 78 % 0 lf 1017,1 hPa 0,0 l/m 0,07 h 0,00 h 75 W/m 20,0 km/h (4 Bft)
12.07.2015 20:00 18,3 C 16,8 C 81 % 0 lf 1017,0 hPa 0,0 l/m 0,00 h 0,00 h 26 W/m 18,4 km/h (3 Bft)
12.07.2015 21:00 18,0 C 16,4 C 80 % 0 lf 1017,2 hPa 0,0 l/m 0,00 h 0,00 h 8 W/m 13,3 km/h (3 Bft)
12.07.2015 22:00 17,7 C 16,1 C 80 % 0 lf 1017,8 hPa 0,0 l/m 0,00 h 0,00 h 0 W/m 14,4 km/h (3 Bft)
12.07.2015 23:00 17,3 C 15,5 C 83 % 0 lf 1017,8 hPa 0,0 l/m 0,00 h 0,10 h 0 W/m 12,3 km/h (3 Bft)
Min-Datum _ 10.07.15 10.07.15 11.07.15 06.07.15 07.07.15 - - - - 06.07.15
_ Min-Zeit 05:52 05:08 15:30 00:00 18:52 - - - - 21:22
Minimum _ 7,3 C 6,1 C 33 % 0 lf 1006,2 hPa - - - - 0,0 km/h (0 Bft)
Max-Datum _ 11.07.15 07.07.15 10.07.15 07.07.15 10.07.15 08.07.15 06.07.15 07.07.15 08.07.15 08.07.15
_ Max-Zeit 16:02 12:16 08:02 23:54 00:30 20:02 06:03 23:20 11:04 12:22
Maximum _ 31,8 C 35,0 C 96 % 15 lf 1024,7 hPa 4,2 l/m 0,03 h 0,03 h 1183 W/m 54,4 km/h
W-SW (7 Bft)
Durchschnitt _ 18,9 C 17,4 C 72 % 2 lf 1016,3 hPa #14,4 l/m #66:11 h #13:39 h 346 W/m 14,7 km/h (3 Bft)
© 2015 W. Hausmann